createdAt,value
2022-12-27T00:04:24.647Z,65954.97
2022-12-27T00:09:30.430Z,65964.63
2022-12-27T00:14:34.934Z,65928.22
2022-12-27T00:19:39.265Z,65947.94
2022-12-27T00:24:48.102Z,65884.38
2022-12-27T00:29:52.453Z,65913.81
2022-12-27T00:34:57.009Z,65936.72
2022-12-27T00:40:02.887Z,65950.16
2022-12-27T00:45:08.793Z,65943.56
2022-12-27T00:50:13.184Z,65886.53
2022-12-27T00:55:20.115Z,65881.19
2022-12-27T01:00:24.757Z,65905.69
2022-12-27T01:05:31.542Z,65900.31
2022-12-27T01:10:37.308Z,65870.56
2022-12-27T01:15:43.452Z,65927.59
2022-12-27T01:20:49.519Z,65967.66
2022-12-27T01:26:02.317Z,65918.59
2022-12-27T01:31:07.720Z,65943.84
2022-12-27T01:36:14.264Z,65954.97
2022-12-27T01:41:39.903Z,65921.81
2022-12-27T01:46:44.209Z,65957.03
2022-12-27T01:51:48.684Z,65977.28
2022-12-27T01:56:55.859Z,66025.63
2022-12-27T02:02:01.431Z,65925.47
2022-12-27T02:07:08.585Z,65938.31
2022-12-27T02:12:15.403Z,65967.72
2022-12-27T02:17:24.073Z,65951.13
2022-12-27T02:23:12.692Z,65956.50
2022-12-27T02:28:36.437Z,65944.28
2022-12-27T02:33:48.085Z,65936.78
2022-12-27T02:38:57.525Z,65939.91
2022-12-27T02:44:19.250Z,65929.84
2022-12-27T02:49:44.522Z,65905.69
2022-12-27T02:55:06.025Z,65939.47
2022-12-27T03:00:31.826Z,65912.28
2022-12-27T03:06:09.116Z,65932.59
2022-12-27T03:11:30.833Z,65960.88
2022-12-27T03:16:42.848Z,65958.00
2022-12-27T03:22:08.955Z,65939.38
2022-12-27T03:27:18.322Z,65906.75
2022-12-27T03:32:42.641Z,65900.88
2022-12-27T03:38:05.666Z,65914.88
2022-12-27T03:43:15.127Z,65883.69
2022-12-27T03:48:25.222Z,65932.44
2022-12-27T03:53:35.624Z,65877.44
2022-12-27T03:58:39.879Z,65919.69
2022-12-27T04:03:46.442Z,65881.72
2022-12-27T04:09:12.802Z,65852.31
2022-12-27T04:14:35.444Z,65865.03
2022-12-27T04:19:57.245Z,65867.72
2022-12-27T04:25:20.006Z,65856.56
2022-12-27T04:30:41.544Z,65827.19
2022-12-27T04:35:48.120Z,65866.19
2022-12-27T04:41:14.120Z,65863.44
2022-12-27T04:46:41.195Z,65841.09
2022-12-27T04:52:02.660Z,65888.03
2022-12-27T04:57:08.812Z,65821.84
2022-12-27T05:02:13.703Z,65841.53
2022-12-27T05:07:50.263Z,65847.06
2022-12-27T05:13:15.350Z,65842.69
2022-12-27T05:18:22.716Z,65853.91
2022-12-27T05:23:46.819Z,65840.03
2022-12-27T05:28:57.244Z,65859.34
2022-12-27T05:34:04.904Z,65870.41
2022-12-27T05:39:12.386Z,65862.91
2022-12-27T05:44:21.343Z,65871.03
2022-12-27T05:49:26.874Z,65876.81
2022-12-27T05:54:31.204Z,65894.53
2022-12-27T05:59:37.158Z,65906.13
2022-12-27T06:04:41.430Z,65881.00
2022-12-27T06:09:45.809Z,65851.78
2022-12-27T06:14:51.605Z,65856.56
2022-12-27T06:19:57.428Z,65847.41
2022-12-27T06:25:03.611Z,65833.59
2022-12-27T06:30:13.922Z,65843.66
2022-12-27T06:35:21.804Z,65841.09
2022-12-27T06:40:29.251Z,65830.41
2022-12-27T06:45:37.307Z,65827.72
2022-12-27T06:50:41.745Z,65844.72
2022-12-27T06:55:45.999Z,65853.28
2022-12-27T07:00:51.848Z,65845.28
2022-12-27T07:05:56.188Z,65846.41
2022-12-27T07:11:02.048Z,65853.38
2022-12-27T07:16:09.443Z,65864.06
2022-12-27T07:21:16.902Z,65850.78
2022-12-27T07:26:24.573Z,65878.50
2022-12-27T07:31:32.366Z,65871.47
2022-12-27T07:36:40.277Z,65795.22
2022-12-27T07:41:44.621Z,65782.28
2022-12-27T07:46:52.513Z,65725.03
2022-12-27T07:51:57.040Z,65725.66
2022-12-27T07:57:01.526Z,65753.78
2022-12-27T08:02:10.405Z,65740.44
2022-12-27T08:07:17.874Z,65703.03
2022-12-27T08:12:22.347Z,65705.38
2022-12-27T08:17:29.145Z,65694.69
2022-12-27T08:22:33.554Z,65689.78
2022-12-27T08:27:37.869Z,65669.50
2022-12-27T08:32:43.969Z,65673.59
2022-12-27T08:37:48.396Z,65638.13
2022-12-27T08:42:52.906Z,65641.13
2022-12-27T08:48:02.354Z,65667.38
2022-12-27T08:53:07.083Z,65692.38
2022-12-27T08:58:16.162Z,65672.09
2022-12-27T09:03:23.038Z,65670.66
2022-12-27T09:08:27.495Z,65664.28
2022-12-27T09:13:32.226Z,65654.56
2022-12-27T09:18:38.241Z,65681.25
2022-12-27T09:23:43.247Z,65650.28
2022-12-27T09:28:48.056Z,65674.22
2022-12-27T09:33:54.467Z,65656.78
2022-12-27T09:39:00.478Z,65685.41
2022-12-27T09:44:09.758Z,65644.44
2022-12-27T09:49:19.680Z,65604.94
2022-12-27T09:54:31.207Z,65630.66
2022-12-27T09:59:40.699Z,65647.09
2022-12-27T10:05:18.380Z,65610.28
2022-12-27T10:10:17.689Z,65605.28
2022-12-27T10:15:29.909Z,65634.81
2022-12-27T10:20:57.686Z,65647.28
2022-12-27T10:26:06.505Z,65700.47
2022-12-27T10:31:16.643Z,65717.22
2022-12-27T10:36:26.142Z,65750.69
2022-12-27T10:41:50.424Z,65733.03
2022-12-27T10:46:57.491Z,65730.38
2022-12-27T10:52:11.447Z,65744.38
2022-12-27T10:57:27.055Z,65685.09
2022-12-27T11:02:31.542Z,65663.75
2022-12-27T11:07:39.049Z,65659.47
2022-12-27T11:12:56.505Z,65656.25
2022-12-27T11:18:03.583Z,65637.59
2022-12-27T11:23:15.059Z,65654.13
2022-12-27T11:28:24.151Z,65605.03
2022-12-27T11:33:40.020Z,65579.78
2022-12-27T11:38:48.135Z,65536.47
2022-12-27T11:43:55.821Z,65522.38
2022-12-27T11:49:00.834Z,65563.88
2022-12-27T11:54:30.966Z,65625.75
2022-12-27T11:59:47.937Z,65655.19
2022-12-27T12:05:41.857Z,65633.13
2022-12-27T12:10:55.032Z,65617.41
2022-12-27T12:16:37.671Z,65664.59
2022-12-27T12:21:58.787Z,65746.28
2022-12-27T12:27:29.250Z,65709.47
2022-12-27T12:32:55.097Z,65688.72
2022-12-27T12:38:06.357Z,65700.03
2022-12-27T12:43:25.455Z,65675.94
2022-12-27T12:49:01.675Z,65627.88
2022-12-27T12:54:18.868Z,65665.34
2022-12-27T12:59:41.656Z,65713.72
2022-12-27T13:05:04.490Z,65760.81
2022-12-27T13:10:45.890Z,65745.84
2022-12-27T13:16:13.183Z,65745.75
2022-12-27T13:21:29.862Z,65733.03
2022-12-27T13:26:43.782Z,65692.47
2022-12-27T13:31:58.213Z,65719.88
2022-12-27T13:37:15.629Z,65721.22
2022-12-27T13:43:00.794Z,65640.06
2022-12-27T13:48:24.353Z,65627.88
2022-12-27T13:54:08.144Z,65606.09
2022-12-27T13:59:37.968Z,65599.16
2022-12-27T14:04:59.758Z,65614.09
2022-12-27T14:10:14.740Z,65606.09
2022-12-27T14:15:23.546Z,65605.91
2022-12-27T14:20:44.406Z,65579.78
2022-12-27T14:26:30.646Z,65575.69
2022-12-27T14:32:06.902Z,65573.47
2022-12-27T14:38:01.356Z,65595.25
2022-12-27T14:43:39.125Z,65570.69
2022-12-27T14:49:14.351Z,65575.59
2022-12-27T14:54:49.293Z,65590.09
2022-12-27T15:00:03.930Z,65593.84
2022-12-27T15:05:25.002Z,65581.03
2022-12-27T15:10:48.292Z,65573.03
2022-12-27T15:16:02.361Z,65567.50
2022-12-27T15:21:21.716Z,65564.41
2022-12-27T15:26:38.746Z,65581.56
2022-12-27T15:31:54.660Z,65583.50
2022-12-27T15:37:02.539Z,65573.47
2022-12-27T15:42:36.479Z,65594.38
2022-12-27T15:48:09.482Z,65588.31
2022-12-27T15:53:48.543Z,65603.88
2022-12-27T15:59:29.948Z,65568.66
2022-12-27T16:04:49.507Z,65544.66
2022-12-27T16:09:55.966Z,65539.31
2022-12-27T16:15:40.103Z,65547.34
2022-12-27T16:20:56.995Z,65533.56
2022-12-27T16:26:07.173Z,65534.00
2022-12-27T16:31:13.791Z,65540.28
2022-12-27T16:36:22.946Z,65538.25
2022-12-27T16:41:44.658Z,65546.16
2022-12-27T16:47:08.976Z,65590.97
2022-12-27T16:52:35.674Z,65581.56
2022-12-27T16:57:44.295Z,65572.41
2022-12-27T17:02:51.899Z,65576.66
2022-12-27T17:08:17.093Z,65620.41
2022-12-27T17:13:34.603Z,65565.03
2022-12-27T17:18:47.050Z,65579.25
2022-12-27T17:23:52.641Z,65569.09
2022-12-27T17:29:07.877Z,65611.25
2022-12-27T17:34:21.795Z,65616.06
2022-12-27T17:39:50.477Z,65616.25
2022-12-27T17:45:14.390Z,65656.06
2022-12-27T17:50:23.984Z,65625.75
2022-12-27T17:55:47.790Z,65614.44
2022-12-27T18:00:58.481Z,65605.47
2022-12-27T18:06:03.469Z,65600.13
2022-12-27T18:11:10.408Z,65571.97
2022-12-27T18:16:20.089Z,65582.63
2022-12-27T18:21:26.577Z,65624.03
2022-12-27T18:26:37.903Z,65559.06
2022-12-27T18:31:49.909Z,65556.84
2022-12-27T18:37:02.044Z,65537.19
2022-12-27T18:42:20.089Z,65563.97
2022-12-27T18:47:28.353Z,65574.09
2022-12-27T18:52:35.350Z,65586.28
2022-12-27T18:57:39.718Z,65545.72
2022-12-27T19:02:46.333Z,65564.31
2022-12-27T19:07:55.555Z,65568.13
2022-12-27T19:13:04.342Z,65548.31
2022-12-27T19:18:23.395Z,65561.22
2022-12-27T19:23:34.011Z,65547.78
2022-12-27T19:28:38.554Z,65546.16
2022-12-27T19:33:46.982Z,65541.38
2022-12-27T19:38:51.640Z,65573.69
2022-12-27T19:43:56.652Z,65556.31
2022-12-27T19:54:26.792Z,65559.59
2022-12-27T19:59:31.295Z,65566.09
2022-12-27T20:04:37.108Z,65555.78
2022-12-27T20:09:41.259Z,65578.16
2022-12-27T20:14:45.945Z,65534.44
2022-12-27T20:19:53.555Z,65532.94
2022-12-27T20:24:58.214Z,65545.94
2022-12-27T20:30:02.758Z,65534.00
2022-12-27T20:35:09.970Z,65546.16
2022-12-27T20:40:16.308Z,65537.19
2022-12-27T20:45:21.500Z,65525.56
2022-12-27T20:50:27.625Z,65532.94
2022-12-27T20:55:33.511Z,65547.78
2022-12-27T21:00:41.206Z,65539.22
2022-12-27T21:05:48.372Z,65517.06
2022-12-27T21:10:52.858Z,65501.59
2022-12-27T21:15:57.753Z,65507.16
2022-12-27T21:21:04.326Z,65510.56
2022-12-27T21:26:30.249Z,65516.41
2022-12-27T21:31:35.028Z,65522.81
2022-12-27T21:36:41.531Z,65482.63
2022-12-27T21:41:46.583Z,65477.41
2022-12-27T21:46:51.294Z,65471.72
2022-12-27T21:51:57.393Z,65456.81
2022-12-27T21:57:01.804Z,65448.91
2022-12-27T22:02:06.425Z,65461.16
2022-12-27T22:07:13.670Z,65417.19
2022-12-27T22:12:18.157Z,65457.16
2022-12-27T22:17:24.009Z,65448.09
2022-12-27T22:22:29.984Z,65468.53
2022-12-27T22:27:34.528Z,65427.84
2022-12-27T22:32:39.009Z,65405.16
2022-12-27T22:37:45.073Z,65434.34
2022-12-27T22:42:50.893Z,65420.59
2022-12-27T22:47:55.109Z,65414.63
2022-12-27T22:53:01.303Z,65405.03
2022-12-27T22:58:05.806Z,65416.78
2022-12-27T23:03:11.273Z,65437.00
2022-12-27T23:08:17.359Z,65381.16
2022-12-27T23:13:24.104Z,65377.75
2022-12-27T23:18:29.583Z,65355.63
2022-12-27T23:23:35.703Z,65350.72
2022-12-27T23:28:41.867Z,65359.78
2022-12-27T23:33:46.371Z,65328.28
2022-12-27T23:38:55.443Z,65332.41
2022-12-27T23:44:02.133Z,65367.13
2022-12-27T23:49:06.804Z,65346.25
2022-12-27T23:54:12.809Z,65357.13
2022-12-27T23:59:18.102Z,65325.19
